createdAt,value
2023-07-18T00:00:42.091Z,25.00
2023-07-18T00:03:10.937Z,25.00
2023-07-18T00:05:40.360Z,25.00
2023-07-18T00:08:11.087Z,24.99
2023-07-18T00:10:40.541Z,24.98
2023-07-18T00:13:09.564Z,24.98
2023-07-18T00:15:37.840Z,24.98
2023-07-18T00:18:06.835Z,24.98
2023-07-18T00:20:35.864Z,24.97
2023-07-18T00:23:05.309Z,24.97
2023-07-18T00:25:34.200Z,24.96
2023-07-18T00:28:03.693Z,24.96
2023-07-18T00:30:32.195Z,24.95
2023-07-18T00:33:00.784Z,24.95
2023-07-18T00:35:29.114Z,24.94
2023-07-18T00:37:58.055Z,24.92
2023-07-18T00:40:26.585Z,24.91
2023-07-18T00:42:55.531Z,24.90
2023-07-18T00:45:25.127Z,24.90
2023-07-18T00:47:54.402Z,24.90
2023-07-18T00:50:23.341Z,24.89
2023-07-18T00:52:51.932Z,24.87
2023-07-18T00:55:20.427Z,24.87
2023-07-18T00:57:49.030Z,24.86
2023-07-18T01:00:17.445Z,24.84
2023-07-18T01:02:46.534Z,24.83
2023-07-18T01:05:16.097Z,24.82
2023-07-18T01:07:44.594Z,24.82
2023-07-18T01:10:13.525Z,24.80
2023-07-18T01:12:42.473Z,24.79
2023-07-18T01:15:10.999Z,24.77
2023-07-18T01:17:40.514Z,24.75
2023-07-18T01:20:09.830Z,24.74
2023-07-18T01:22:38.700Z,24.73
2023-07-18T01:25:07.599Z,24.73
2023-07-18T01:27:36.594Z,24.72
2023-07-18T01:30:05.139Z,24.71
2023-07-18T01:32:34.151Z,24.69
2023-07-18T01:35:03.064Z,24.68
2023-07-18T01:37:31.865Z,24.67
2023-07-18T01:40:00.500Z,24.67
2023-07-18T01:42:29.486Z,24.65
2023-07-18T01:44:58.850Z,24.65
2023-07-18T01:47:27.434Z,24.63
2023-07-18T01:49:56.424Z,24.61
2023-07-18T01:52:24.948Z,24.61
2023-07-18T01:54:54.296Z,24.59
2023-07-18T01:57:24.641Z,24.60
2023-07-18T01:59:54.490Z,24.58
2023-07-18T02:02:23.586Z,24.58
2023-07-18T02:04:52.812Z,24.56
2023-07-18T02:07:21.893Z,24.55
2023-07-18T02:09:51.224Z,24.54
2023-07-18T02:12:20.210Z,24.53
2023-07-18T02:14:49.166Z,24.53
2023-07-18T02:17:18.122Z,24.53
2023-07-18T02:19:47.495Z,24.49
2023-07-18T02:22:16.385Z,24.49
2023-07-18T02:24:45.357Z,24.48
2023-07-18T02:27:14.253Z,24.49
2023-07-18T02:29:43.111Z,24.47
2023-07-18T02:32:12.022Z,24.47
2023-07-18T02:34:40.972Z,24.47
2023-07-18T02:37:10.339Z,24.47
2023-07-18T02:39:39.217Z,24.46
2023-07-18T02:42:07.844Z,24.47
2023-07-18T02:44:36.030Z,24.47
2023-07-18T02:47:05.377Z,24.45
2023-07-18T02:49:34.211Z,24.45
2023-07-18T02:52:03.160Z,24.44
2023-07-18T02:54:32.783Z,24.44
2023-07-18T02:57:01.368Z,24.45
2023-07-18T02:59:30.727Z,24.45
2023-07-18T03:01:59.239Z,24.46
2023-07-18T03:04:28.686Z,24.46
2023-07-18T03:06:57.602Z,24.45
2023-07-18T03:09:27.054Z,24.46
2023-07-18T03:11:56.043Z,24.46
2023-07-18T03:14:25.404Z,24.45
2023-07-18T03:16:53.830Z,24.46
2023-07-18T03:19:22.665Z,24.48
2023-07-18T03:21:51.170Z,24.47
2023-07-18T03:24:19.746Z,24.47
2023-07-18T03:26:48.639Z,24.46
2023-07-18T03:29:17.523Z,24.46
2023-07-18T03:31:46.561Z,24.47
2023-07-18T03:34:14.766Z,24.46
2023-07-18T03:36:42.980Z,24.46
2023-07-18T03:39:12.818Z,24.46
2023-07-18T03:41:41.815Z,24.46
2023-07-18T03:44:11.139Z,24.46
2023-07-18T03:46:40.157Z,24.46
2023-07-18T03:49:09.063Z,24.46
2023-07-18T03:51:38.167Z,24.45
2023-07-18T03:54:07.750Z,24.45
2023-07-18T03:56:37.287Z,24.44
2023-07-18T03:59:06.218Z,24.44
2023-07-18T04:01:35.585Z,24.44
2023-07-18T04:04:05.018Z,24.45
2023-07-18T04:06:33.983Z,24.45
2023-07-18T04:09:03.373Z,24.46
2023-07-18T04:11:32.793Z,24.46
2023-07-18T04:14:02.325Z,24.46
2023-07-18T04:16:31.738Z,24.46
2023-07-18T04:19:01.136Z,24.46
2023-07-18T04:21:30.484Z,24.46
2023-07-18T04:23:59.870Z,24.46
2023-07-18T04:26:29.016Z,24.47
2023-07-18T04:28:57.637Z,24.48
2023-07-18T04:31:26.813Z,24.49
2023-07-18T04:33:56.503Z,24.47
2023-07-18T04:36:25.886Z,24.48
2023-07-18T04:38:54.750Z,24.48
2023-07-18T04:41:23.735Z,24.48
2023-07-18T04:43:53.237Z,24.49
2023-07-18T04:46:22.919Z,24.48
2023-07-18T04:48:51.906Z,24.49
2023-07-18T04:51:21.386Z,24.49
2023-07-18T04:53:50.064Z,24.49
2023-07-18T04:56:18.989Z,24.49
2023-07-18T04:58:48.373Z,24.50
2023-07-18T05:01:18.086Z,24.51
2023-07-18T05:03:57.313Z,24.50
2023-07-18T05:06:27.487Z,24.52
2023-07-18T05:08:56.545Z,24.51
2023-07-18T05:11:25.895Z,24.53
2023-07-18T05:13:55.491Z,24.52
2023-07-18T05:16:24.658Z,24.53
2023-07-18T05:18:54.230Z,24.54
2023-07-18T05:21:23.657Z,24.56
2023-07-18T05:23:53.088Z,24.56
2023-07-18T05:26:22.458Z,24.55
2023-07-18T05:28:52.036Z,24.55
2023-07-18T05:31:21.713Z,24.53
2023-07-18T05:33:51.393Z,24.53
2023-07-18T05:36:20.980Z,24.54
2023-07-18T05:38:50.839Z,24.54
2023-07-18T05:41:20.147Z,24.55
2023-07-18T05:43:49.926Z,24.57
2023-07-18T05:46:19.483Z,24.57
2023-07-18T05:48:49.043Z,24.56
2023-07-18T05:51:18.348Z,24.57
2023-07-18T05:53:47.974Z,24.58
2023-07-18T05:56:17.464Z,24.59
2023-07-18T05:58:46.821Z,24.60
2023-07-18T06:01:16.325Z,24.61
2023-07-18T06:03:46.093Z,24.62
2023-07-18T06:06:15.725Z,24.62
2023-07-18T06:08:44.610Z,24.62
2023-07-18T06:11:13.472Z,24.62
2023-07-18T06:13:42.816Z,24.62
2023-07-18T06:16:11.690Z,24.62
2023-07-18T06:18:41.068Z,24.64
2023-07-18T06:21:10.511Z,24.63
2023-07-18T06:23:39.579Z,24.61
2023-07-18T06:26:09.023Z,24.61
2023-07-18T06:28:38.430Z,24.61
2023-07-18T06:31:07.254Z,24.62
2023-07-18T06:33:35.117Z,24.62
2023-07-18T06:36:03.352Z,24.63
2023-07-18T06:38:32.667Z,24.64
2023-07-18T06:41:01.440Z,24.66
2023-07-18T06:43:30.380Z,24.66
2023-07-18T06:45:59.585Z,24.67
2023-07-18T06:48:28.293Z,24.67
2023-07-18T06:50:57.681Z,24.68
2023-07-18T06:53:26.588Z,24.70
2023-07-18T06:55:55.698Z,24.71
2023-07-18T06:58:24.777Z,24.73
2023-07-18T07:00:54.119Z,24.75
2023-07-18T07:03:23.718Z,24.77
2023-07-18T07:05:53.204Z,24.79
2023-07-18T07:08:22.260Z,24.80
2023-07-18T07:10:51.783Z,24.83
2023-07-18T07:13:20.860Z,24.85
2023-07-18T07:15:49.797Z,24.85
2023-07-18T07:18:18.830Z,24.85
2023-07-18T07:20:48.125Z,24.86
2023-07-18T07:23:17.775Z,24.87
2023-07-18T07:25:47.398Z,24.88
2023-07-18T07:28:16.820Z,24.87
2023-07-18T07:30:46.329Z,24.88
2023-07-18T07:33:15.110Z,24.90
2023-07-18T07:35:43.402Z,24.90
2023-07-18T07:38:12.894Z,24.91
2023-07-18T07:40:41.606Z,24.94
2023-07-18T07:43:10.430Z,24.95
2023-07-18T07:45:39.889Z,25.00
2023-07-18T07:48:08.997Z,25.04
2023-07-18T07:50:38.512Z,25.09
2023-07-18T07:53:07.896Z,25.15
2023-07-18T07:55:37.482Z,25.24
2023-07-18T07:58:07.320Z,25.32
2023-07-18T08:00:36.707Z,25.40
2023-07-18T08:03:06.208Z,25.48
2023-07-18T08:05:35.285Z,25.57
2023-07-18T08:08:04.054Z,25.65
2023-07-18T08:10:36.670Z,25.74
2023-07-18T08:13:05.668Z,25.84
2023-07-18T08:15:34.640Z,25.93
2023-07-18T08:18:04.148Z,26.02
2023-07-18T08:20:33.643Z,26.14
2023-07-18T08:23:02.486Z,26.23
2023-07-18T08:25:32.582Z,26.33
2023-07-18T08:28:02.080Z,26.42
2023-07-18T08:30:36.878Z,26.52
2023-07-18T08:33:06.416Z,26.61
2023-07-18T08:35:35.588Z,26.69
2023-07-18T08:38:04.211Z,26.76
2023-07-18T08:40:33.520Z,26.88
2023-07-18T08:43:02.900Z,26.95
2023-07-18T08:45:31.960Z,27.02
2023-07-18T08:48:01.578Z,27.11
2023-07-18T08:50:31.269Z,27.19
2023-07-18T08:53:00.794Z,27.27
2023-07-18T08:55:30.035Z,27.40
2023-07-18T08:57:58.863Z,27.50
2023-07-18T09:00:28.238Z,27.58
2023-07-18T09:02:57.219Z,27.67
2023-07-18T09:05:26.027Z,27.73
2023-07-18T09:07:54.829Z,27.75
2023-07-18T09:10:24.528Z,27.75
2023-07-18T09:12:53.456Z,27.79
2023-07-18T09:15:22.357Z,27.88
2023-07-18T09:17:51.864Z,27.96
2023-07-18T09:20:21.399Z,27.99
2023-07-18T09:22:50.897Z,28.00
2023-07-18T09:25:20.492Z,28.08
2023-07-18T09:27:50.991Z,28.16
2023-07-18T09:30:20.581Z,28.19
2023-07-18T09:32:49.361Z,28.18
2023-07-18T09:35:18.922Z,28.22
2023-07-18T09:37:48.603Z,28.28
2023-07-18T09:40:18.146Z,28.38
2023-07-18T09:42:47.892Z,28.50
2023-07-18T09:45:17.278Z,28.59
2023-07-18T09:47:46.542Z,28.68
2023-07-18T09:50:16.008Z,28.77
2023-07-18T09:52:45.410Z,28.86
2023-07-18T09:55:14.542Z,28.96
2023-07-18T09:57:42.692Z,29.03
2023-07-18T10:00:11.932Z,29.09
2023-07-18T10:02:40.901Z,29.17
2023-07-18T10:05:09.860Z,29.25
2023-07-18T10:07:39.145Z,29.30
2023-07-18T10:10:09.023Z,29.36
2023-07-18T10:12:38.377Z,29.43
2023-07-18T10:15:07.717Z,29.48
2023-07-18T10:17:36.837Z,29.51
2023-07-18T10:20:06.364Z,29.56
2023-07-18T10:22:35.396Z,29.60
2023-07-18T10:25:04.861Z,29.64
2023-07-18T10:27:33.899Z,29.70
2023-07-18T10:30:03.312Z,29.74
2023-07-18T10:32:32.621Z,29.80
2023-07-18T10:35:00.582Z,29.85
2023-07-18T10:37:29.308Z,29.93
2023-07-18T10:39:58.811Z,29.97
2023-07-18T10:42:27.742Z,30.03
2023-07-18T10:44:57.031Z,30.08
2023-07-18T10:47:26.429Z,30.08
2023-07-18T10:49:55.591Z,30.12
2023-07-18T10:52:24.554Z,30.17
2023-07-18T10:54:53.906Z,30.22
2023-07-18T10:57:23.478Z,30.25
2023-07-18T10:59:52.668Z,30.28
2023-07-18T11:02:21.122Z,30.30
2023-07-18T11:04:49.901Z,30.22
2023-07-18T11:07:19.290Z,30.23
2023-07-18T11:09:48.362Z,30.25
2023-07-18T11:12:17.756Z,30.30
2023-07-18T11:14:47.152Z,30.32
2023-07-18T11:17:16.270Z,30.36
2023-07-18T11:19:44.999Z,30.39
2023-07-18T11:22:14.449Z,30.42
2023-07-18T11:24:43.916Z,30.44
2023-07-18T11:27:13.252Z,30.44
2023-07-18T11:29:42.650Z,30.43
2023-07-18T11:32:11.671Z,30.41
2023-07-18T11:34:40.995Z,30.37
2023-07-18T11:37:10.247Z,30.31
2023-07-18T11:39:39.919Z,30.26
2023-07-18T11:42:08.778Z,30.28
2023-07-18T11:44:37.027Z,30.31
2023-07-18T11:47:05.927Z,30.36
2023-07-18T11:49:34.804Z,30.31
2023-07-18T11:52:03.684Z,30.24
2023-07-18T11:54:33.181Z,30.17
2023-07-18T11:57:02.678Z,30.17
2023-07-18T11:59:31.658Z,30.25
2023-07-18T12:02:01.124Z,30.34
2023-07-18T12:04:30.639Z,30.39
2023-07-18T12:06:59.622Z,30.45
2023-07-18T12:09:29.536Z,30.48
2023-07-18T12:11:58.559Z,30.51
2023-07-18T12:14:27.590Z,30.51
2023-07-18T12:16:56.536Z,30.49
2023-07-18T12:19:25.661Z,30.50
2023-07-18T12:21:53.892Z,30.51
2023-07-18T12:24:23.266Z,30.50
2023-07-18T12:26:52.172Z,30.50
2023-07-18T12:29:21.554Z,30.50
2023-07-18T12:31:50.843Z,30.50
2023-07-18T12:34:19.232Z,30.52
2023-07-18T12:36:48.713Z,30.52
2023-07-18T12:39:18.304Z,30.51
2023-07-18T12:41:47.682Z,30.48
2023-07-18T12:44:16.577Z,30.47
2023-07-18T12:46:45.876Z,30.46
2023-07-18T12:49:15.287Z,30.45
2023-07-18T12:51:44.301Z,30.44
2023-07-18T12:54:13.403Z,30.44
2023-07-18T12:56:42.617Z,30.44
2023-07-18T12:59:12.231Z,30.43
2023-07-18T13:01:41.353Z,30.44
2023-07-18T13:04:10.477Z,30.43
2023-07-18T13:06:39.975Z,30.44
2023-07-18T13:09:09.261Z,30.43
2023-07-18T13:11:38.590Z,30.43
2023-07-18T13:14:07.641Z,30.42
2023-07-18T13:16:37.275Z,30.41
2023-07-18T13:19:07.136Z,30.39
2023-07-18T13:21:36.805Z,30.36
2023-07-18T13:24:06.475Z,30.35
2023-07-18T13:26:36.218Z,30.31
2023-07-18T13:29:05.778Z,30.26
2023-07-18T13:31:35.400Z,30.22
2023-07-18T13:34:04.955Z,30.17
2023-07-18T13:36:34.110Z,30.13
2023-07-18T13:39:03.228Z,30.02
2023-07-18T13:41:33.045Z,29.94
2023-07-18T13:44:02.687Z,29.89
2023-07-18T13:46:33.254Z,29.84
2023-07-18T13:49:02.223Z,29.80
2023-07-18T13:51:31.894Z,29.72
2023-07-18T13:54:01.171Z,29.66
2023-07-18T13:56:29.942Z,29.55
2023-07-18T13:58:59.337Z,29.47
2023-07-18T14:01:29.573Z,29.39
2023-07-18T14:03:59.743Z,29.31
2023-07-18T14:06:28.729Z,29.24
2023-07-18T14:08:57.648Z,29.17
2023-07-18T14:11:28.862Z,29.10
2023-07-18T14:13:58.816Z,29.02
2023-07-18T14:16:28.269Z,28.96
2023-07-18T14:18:57.134Z,28.86
2023-07-18T14:21:27.742Z,28.79
2023-07-18T14:23:57.368Z,28.73
2023-07-18T14:26:26.382Z,28.65
2023-07-18T14:28:55.166Z,28.57
2023-07-18T14:31:23.457Z,28.52
2023-07-18T14:34:05.633Z,28.47
2023-07-18T14:36:35.990Z,28.43
2023-07-18T14:39:05.354Z,28.39
2023-07-18T14:41:34.704Z,28.36
2023-07-18T14:44:03.768Z,28.32
2023-07-18T14:46:32.012Z,28.29
2023-07-18T14:49:01.346Z,28.25
2023-07-18T14:51:30.262Z,28.22
2023-07-18T14:53:59.548Z,28.17
2023-07-18T14:56:28.575Z,28.15
2023-07-18T14:58:58.015Z,28.12
2023-07-18T15:01:27.536Z,28.09
2023-07-18T15:03:57.316Z,28.05
2023-07-18T15:06:26.826Z,28.01
2023-07-18T15:08:56.237Z,27.98
2023-07-18T15:11:25.762Z,27.95
2023-07-18T15:13:54.734Z,27.92
2023-07-18T15:16:23.983Z,27.91
2023-07-18T15:18:53.091Z,27.90
2023-07-18T15:21:22.468Z,27.87
2023-07-18T15:23:51.154Z,27.84
2023-07-18T15:26:20.158Z,27.82
2023-07-18T15:28:49.320Z,27.79
2023-07-18T15:31:18.201Z,27.77
2023-07-18T15:33:47.607Z,27.73
2023-07-18T15:36:16.642Z,27.74
2023-07-18T15:38:46.545Z,27.71
2023-07-18T15:41:16.046Z,27.70
2023-07-18T15:43:44.976Z,27.69
2023-07-18T15:46:14.318Z,27.68
2023-07-18T15:48:43.918Z,27.65
2023-07-18T15:51:13.034Z,27.64
2023-07-18T15:53:41.216Z,27.62
2023-07-18T15:56:09.803Z,27.60
2023-07-18T15:58:38.036Z,27.59
2023-07-18T16:01:07.393Z,27.58
2023-07-18T16:03:36.824Z,27.57
2023-07-18T16:06:05.880Z,27.55
2023-07-18T16:08:36.589Z,27.55
2023-07-18T16:11:06.148Z,27.52
2023-07-18T16:13:35.714Z,27.51
2023-07-18T16:16:04.960Z,27.49
2023-07-18T16:18:33.663Z,27.47
2023-07-18T16:21:02.565Z,27.45
2023-07-18T16:23:31.454Z,27.43
2023-07-18T16:26:00.565Z,27.42
2023-07-18T16:28:29.218Z,27.40
2023-07-18T16:30:58.650Z,27.39
2023-07-18T16:33:28.091Z,27.37
2023-07-18T16:35:57.476Z,27.37
2023-07-18T16:38:26.350Z,27.33
2023-07-18T16:40:55.141Z,27.31
2023-07-18T16:43:24.006Z,27.29
2023-07-18T16:45:53.003Z,27.28
2023-07-18T16:48:22.323Z,27.27
2023-07-18T16:50:51.111Z,27.27
2023-07-18T16:53:20.506Z,27.24
2023-07-18T16:55:49.832Z,27.22
2023-07-18T16:58:18.803Z,27.22
2023-07-18T17:00:47.860Z,27.20
2023-07-18T17:03:17.230Z,27.18
2023-07-18T17:05:46.249Z,27.16
2023-07-18T17:08:15.755Z,27.15
2023-07-18T17:10:45.451Z,27.14
2023-07-18T17:13:14.512Z,27.13
2023-07-18T17:15:43.472Z,27.12
2023-07-18T17:18:12.990Z,27.13
2023-07-18T17:20:42.413Z,27.11
2023-07-18T17:23:11.896Z,27.10
2023-07-18T17:25:40.878Z,27.10
2023-07-18T17:28:10.319Z,27.10
2023-07-18T17:30:39.230Z,27.10
2023-07-18T17:33:08.136Z,27.09
2023-07-18T17:35:37.217Z,27.09
2023-07-18T17:38:07.926Z,27.08
2023-07-18T17:40:38.434Z,27.06
2023-07-18T17:43:07.541Z,27.05
2023-07-18T17:45:36.844Z,27.03
2023-07-18T17:48:05.835Z,27.03
2023-07-18T17:50:35.306Z,27.02
2023-07-18T17:53:03.969Z,27.01
2023-07-18T17:55:32.736Z,26.99
2023-07-18T17:58:02.083Z,26.99
2023-07-18T18:00:31.069Z,26.99
2023-07-18T18:03:00.595Z,26.96
2023-07-18T18:05:29.988Z,26.97
2023-07-18T18:07:58.855Z,26.96
2023-07-18T18:10:27.751Z,26.95
2023-07-18T18:12:57.084Z,26.94
2023-07-18T18:15:26.100Z,26.94
2023-07-18T18:17:59.153Z,26.94
2023-07-18T18:20:28.280Z,26.93
2023-07-18T18:22:57.804Z,26.93
2023-07-18T18:25:26.923Z,26.92
2023-07-18T18:27:55.562Z,26.92
2023-07-18T18:30:24.372Z,26.91
2023-07-18T18:32:53.465Z,26.89
2023-07-18T18:35:22.278Z,26.88
2023-07-18T18:37:51.144Z,26.88
2023-07-18T18:40:20.694Z,26.86
2023-07-18T18:42:50.119Z,26.84
2023-07-18T18:45:18.436Z,26.83
2023-07-18T18:47:47.881Z,26.82
2023-07-18T18:50:17.315Z,26.79
2023-07-18T18:52:46.891Z,26.77
2023-07-18T18:55:20.575Z,26.77
2023-07-18T18:57:49.831Z,26.75
2023-07-18T19:00:19.526Z,26.74
2023-07-18T19:02:49.076Z,26.73
2023-07-18T19:05:18.648Z,26.71
2023-07-18T19:07:48.095Z,26.69
2023-07-18T19:10:17.561Z,26.67
2023-07-18T19:12:46.974Z,26.67
2023-07-18T19:15:16.228Z,26.65
2023-07-18T19:17:45.684Z,26.63
2023-07-18T19:20:14.624Z,26.62
2023-07-18T19:22:44.161Z,26.59
2023-07-18T19:25:12.830Z,26.58
2023-07-18T19:27:41.745Z,26.57
2023-07-18T19:30:11.962Z,26.55
2023-07-18T19:32:43.298Z,26.53
2023-07-18T19:35:12.659Z,26.52
2023-07-18T19:37:42.058Z,26.52
2023-07-18T19:40:10.918Z,26.50
2023-07-18T19:42:40.258Z,26.49
2023-07-18T19:45:09.296Z,26.48
2023-07-18T19:47:38.145Z,26.47
2023-07-18T19:50:10.131Z,26.46
2023-07-18T19:52:40.041Z,26.45
2023-07-18T19:55:08.380Z,26.44
2023-07-18T19:57:37.613Z,26.42
2023-07-18T20:00:06.240Z,26.41
2023-07-18T20:02:34.803Z,26.40
2023-07-18T20:05:04.501Z,26.40
2023-07-18T20:07:34.107Z,26.38
2023-07-18T20:10:03.660Z,26.37
2023-07-18T20:12:32.576Z,26.37
2023-07-18T20:15:01.958Z,26.36
2023-07-18T20:17:31.628Z,26.35
2023-07-18T20:20:00.719Z,26.34
2023-07-18T20:22:30.169Z,26.35
2023-07-18T20:24:59.315Z,26.35
2023-07-18T20:27:28.034Z,26.34
2023-07-18T20:29:56.897Z,26.32
2023-07-18T20:32:26.435Z,26.31
2023-07-18T20:34:55.355Z,26.31
2023-07-18T20:37:24.485Z,26.31
2023-07-18T20:39:53.234Z,26.30
2023-07-18T20:42:22.707Z,26.31
2023-07-18T20:44:52.212Z,26.32
2023-07-18T20:47:21.736Z,26.32
2023-07-18T20:49:51.002Z,26.31
2023-07-18T20:52:20.254Z,26.31
2023-07-18T20:54:48.946Z,26.32
2023-07-18T20:57:18.252Z,26.31
2023-07-18T20:59:47.223Z,26.31
2023-07-18T21:02:16.574Z,26.31
2023-07-18T21:04:45.947Z,26.31
2023-07-18T21:07:15.202Z,26.30
2023-07-18T21:09:44.646Z,26.29
2023-07-18T21:12:13.949Z,26.29
2023-07-18T21:14:43.325Z,26.29
2023-07-18T21:17:11.901Z,26.27
2023-07-18T21:19:40.664Z,26.27
2023-07-18T21:22:09.613Z,26.25
2023-07-18T21:24:38.515Z,26.24
2023-07-18T21:27:07.541Z,26.24
2023-07-18T21:29:36.874Z,26.22
2023-07-18T21:32:06.135Z,26.21
2023-07-18T21:34:34.844Z,26.20
2023-07-18T21:37:03.619Z,26.19
2023-07-18T21:39:37.475Z,26.17
2023-07-18T21:42:07.026Z,26.16
2023-07-18T21:44:35.969Z,26.15
2023-07-18T21:47:04.968Z,26.15
2023-07-18T21:49:33.930Z,26.16
2023-07-18T21:52:04.433Z,26.14
2023-07-18T21:54:34.066Z,26.13
2023-07-18T21:57:03.881Z,26.14
2023-07-18T21:59:35.182Z,26.12
2023-07-18T22:02:04.752Z,26.13
2023-07-18T22:04:33.464Z,26.13
2023-07-18T22:07:02.697Z,26.13
2023-07-18T22:09:31.446Z,26.11
2023-07-18T22:12:00.349Z,26.10
2023-07-18T22:14:29.554Z,26.11
2023-07-18T22:16:58.279Z,26.09
2023-07-18T22:19:26.797Z,26.08
2023-07-18T22:21:55.753Z,26.08
2023-07-18T22:24:24.677Z,26.08
2023-07-18T22:26:53.897Z,26.08
2023-07-18T22:29:23.313Z,26.06
2023-07-18T22:31:52.635Z,26.06
2023-07-18T22:34:21.587Z,26.06
2023-07-18T22:36:50.610Z,26.05
2023-07-18T22:39:33.456Z,26.04
2023-07-18T22:42:04.769Z,26.04
2023-07-18T22:44:33.679Z,26.03
2023-07-18T22:47:03.112Z,26.02
2023-07-18T22:49:32.788Z,26.02
2023-07-18T22:52:01.665Z,26.01
2023-07-18T22:54:30.779Z,26.00
2023-07-18T22:57:00.243Z,25.99
2023-07-18T22:59:29.745Z,25.99
2023-07-18T23:01:58.614Z,25.98
2023-07-18T23:04:27.134Z,25.97
2023-07-18T23:06:55.825Z,25.97
2023-07-18T23:09:25.355Z,25.96
2023-07-18T23:11:54.089Z,25.95
2023-07-18T23:14:22.448Z,25.95
2023-07-18T23:16:52.049Z,25.94
2023-07-18T23:19:20.998Z,25.94
2023-07-18T23:21:49.921Z,25.93
2023-07-18T23:24:18.792Z,25.92
2023-07-18T23:26:48.027Z,25.94
2023-07-18T23:29:17.016Z,25.92
2023-07-18T23:31:45.296Z,25.92
2023-07-18T23:34:14.812Z,25.90
2023-07-18T23:36:43.823Z,25.89
2023-07-18T23:39:13.020Z,25.89
2023-07-18T23:41:41.082Z,25.88
2023-07-18T23:44:09.285Z,25.88
2023-07-18T23:46:38.735Z,25.87
2023-07-18T23:49:07.610Z,25.86
2023-07-18T23:51:36.997Z,25.86
2023-07-18T23:54:06.204Z,25.85
2023-07-18T23:56:35.395Z,25.85
2023-07-18T23:59:04.337Z,25.84
